Tiempo atmosférico en la estación meteorológica de Puertollano, Ciudad Real (700 m.)



Fecha
DESCASC
Temp. máxima en grados centígrados (hora)
DESCASC
Temp. mínima en grados centígrados (hora)
DESCASC
Temp. media en grados centígrados
DESCASC
Racha de viento máxima en m/sg (hora)
DESCASC
Velocidad máxima media en intervalos de 10 minutos(hora)
DESCASC
Precipitaciones diarias en mm
DESCASC
Precipitaciones de 00:00 a 06:00 en mm
DESCASC
Precipitaciones de 06:00 a 12:00 en mm
DESCASC
Precipitaciones de 12:00 a 18:00 en mm
DESCASC
Precipitaciones de 18:00 a 24:00 en mm
DESCASC
16-04-2019 24.7 (17:40) 5.8 (08:20) 15.3 6.67 (16:30) 3.61 (17:10) 0 0 0 0 0
15-04-2019 26 (17:30) 10.2 (05:00) 18.1 12.78 (16:20) 6.94 (15:50) 0 0 0 0 0
14-04-2019 23.3 (17:50) 8.3 (00:00) 15.8 7.22 (14:10) 3.61 (16:40) 0 0 0 0 0
13-04-2019 22 (18:10) 3.8 (00:00) 12.9 7.22 (17:40) 3.61 (13:00) 0 0 0 0 0
12-04-2019 18.7 (18:20) 2.4 (00:00) 10.6 6.39 (16:10) 3.33 (13:00) 0 0 0 0 0
11-04-2019 16.8 (17:00) 2.7 (00:00) 9.7 10.83 (19:10) 5.28 (18:50) 0.4 0 0 0 0.4
10-04-2019 15.1 (17:50) 5.5 (00:00) 10.3 10.56 (18:30) 5.28 (19:30) 3.2 0 0 0 3.2
09-04-2019 14.5 (17:00) 5.9 (00:00) 10.2 13.61 (17:20) 6.11 (17:30) 0.6 0 0 0.6 0
08-04-2019 16.2 (17:10) 8.5 (00:00) 12.4 9.72 (16:40) 4.44 (15:20) 5 0.8 0.2 4 0
07-04-2019 11.8 (15:30) 4.5 (00:00) 8.2 9.72 (13:30) 4.44 (03:50) 1.6 0.8 0.2 0 0.6
06-04-2019 10.6 (13:30) 5 (00:00) 7.8 14.17 (17:30) 6.11 (17:20) 5.8 0.4 0.8 4.6 0
05-04-2019 11 (17:40) 5.3 (00:00) 8.2 11.94 (18:00) 5 (18:10) 5.6 0 2.4 2.8 0.4
04-04-2019 18.4 (18:30) 5.1 (00:00) 11.7 9.17 (20:00) 4.72 (11:10) 0 0 0 0 0
03-04-2019 19.8 (16:40) 4.2 (00:00) 12 12.22 (16:00) 5.28 (20:00) 0 0 0 0 0
02-04-2019 18.6 (16:40) 5.6 (00:00) 12.1 7.78 (17:10) 4.44 (17:10) 0 0 0 0 0
01-04-2019 18.2 (17:00) 8.1 (00:00) 13.2 8.61 (18:10) 4.72 (18:20) 1.6 0 0.2 0.2 1.2
31-03-2019 13.3 (19:10) 9.1 (00:00) 11.2 6.39 (11:10) 3.89 (10:30) 1.2 1.2 0 0 0
30-03-2019 21.5 (15:30) 7.1 (00:00) 14.3 8.33 (20:40) 4.17 (20:40) 0.6 0 0 0 0.6
29-03-2019 19.9 (16:30) 1.7 (00:00) 10.8 5.83 (15:20) 2.78 (14:50) 0 0 0 0 0
28-03-2019 20.6 (16:30) 3.4 (00:00) 12 10 (14:30) 4.44 (17:50) 0 0 0 0 0
27-03-2019 19 (17:00) 5.8 (00:00) 12.4 11.39 (12:40) 5.83 (13:40) 0 0 0 0 0
26-03-2019 23.5 (15:30) 6.3 (00:00) 14.9 11.39 (15:20) 5.83 (18:30) 0 0 0 0 0
25-03-2019 22.1 (16:40) 3.3 (00:00) 12.7 10 (13:20) 5 (20:50) 0 0 0 0 0
24-03-2019 19.2 (17:00) 5 (00:00) 12.1 8.06 (14:20) 4.17 (14:20) 0 0 0 0 0
23-03-2019 18.3 (14:40) 3.9 (00:00) 11.1 13.33 (15:50) 6.94 (15:30) 0 0 0 0 0
22-03-2019 18.7 (17:00) 2 (00:00) 10.4 11.11 (12:30) 5.56 (12:30) 0 0 0 0 0
21-03-2019 15.7 (15:50) 5.2 (00:00) 10.4 10.83 (13:30) 5 (13:00) 0 0 0 0 0
20-03-2019 15.6 (16:10) 3.9 (00:00) 9.8 11.11 (03:50) 5.83 (03:50) 0 0 0 0 0
19-03-2019 15.6 (16:40) 4.5 (00:00) 10.1 11.39 (14:00) 6.11 (12:00) 0 0 0 0 0

Gráficas

Temp. máximas Temp. mínimas Temp. medias Precipitaciones Rachas de viento máximas Velocidades máximas media en intervalos de 10 minutos

Datos horarios

Fecha y hora oficial Temperatura (ºC) Velocidad del viento (km/h) Dirección del viento Racha (km/h) Dirección de racha Precipitación (mm) Presión (hPa) Tendencia (hPa) Humedad (%)
2019-04-17 23:00:00 16.5 9 Sudoeste 19 Sudoeste 0 -- -- 63
2019-04-17 22:00:00 17.5 10 Sudoeste 18 Oeste 0 -- -- 58
2019-04-17 21:00:00 18.2 6 Oeste 15 Sudoeste 0 -- -- 54
2019-04-17 20:00:00 19.2 9 Sudoeste 28 Sur 0 -- -- 51
2019-04-17 19:00:00 20 15 Sudoeste 32 Sudoeste 0 -- -- 49
2019-04-17 18:00:00 21.2 10 Oeste 29 Noroeste 0 -- -- 45
2019-04-17 17:00:00 24.6 8 Oeste 22 Sur 0 -- -- 36
2019-04-17 16:00:00 25.2 10 Sur 30 Sur 0 -- -- 31
2019-04-17 15:00:00 25.5 13 Sur 34 Sur 0 -- -- 30
2019-04-17 14:00:00 25.5 12 Sur 30 Sur 0 -- -- 28
2019-04-17 13:00:00 24.1 16 Sur 30 Sur 0 -- -- 32
2019-04-17 12:00:00 21.5 10 Sur 24 Sur 0 -- -- 36
2019-04-17 11:00:00 18.3 7 Este 15 Este 0 -- -- 47
2019-04-17 10:00:00 15.3 7 Este 16 Este 0 -- -- 54
2019-04-17 09:00:00 13.5 5 Este 12 Sudeste 0 -- -- 59
2019-04-17 08:00:00 12.3 4 Sudeste 15 Este 0 -- -- 62
2019-04-17 07:00:00 12.8 5 Sudeste 16 Este 0 -- -- 59
2019-04-17 06:00:00 12.8 7 Sudeste 12 Este 0 -- -- 54
2019-04-17 05:00:00 12.2 2 Sudoeste 13 Sudeste 0 -- -- 60
2019-04-17 04:00:00 14.3 6 Sudeste 16 Este 0 -- -- 52
2019-04-17 03:00:00 14.4 4 Sudeste 10 Sudeste 0 -- -- 54
2019-04-17 02:00:00 14.5 0 Calma 8 Noroeste 0 -- -- 57
2019-04-17 01:00:00 16.6 4 Oeste 13 Este 0 -- -- 50
2019-04-17 00:00:00 18.1 7 Este 16 Este 0 -- -- 47
2019-04-16 23:00:00 19.4 8 Sudeste 14 Este 0 -- -- 43
2019-04-16 22:00:00 19.9 5 Sudeste 12 Sudoeste 0 -- -- 41
2019-04-16 21:00:00 21.2 8 Sudoeste 18 Sur 0 -- -- 35
2019-04-16 20:00:00 23.1 7 Sudeste 24 Sur 0 -- -- 29
2019-04-16 19:00:00 24.1 10 Sur 24 Sur 0 -- -- 26
2019-04-16 18:00:00 24.6 13 Sur 24 Sur 0 -- -- 23
2019-04-16 17:00:00 24.5 9 Sudoeste 24 Sudeste 0 -- -- 26
2019-04-16 16:00:00 22.4 5 Sudeste 21 Sudeste 0 -- -- 33
2019-04-16 15:00:00 21.3 5 Sur 19 Sur 0 -- -- 40
2019-04-16 14:00:00 19.8 4 Sudeste 22 Este 0 -- -- 41
2019-04-16 13:00:00 18.4 8 Este 24 Sur 0 -- -- 45
2019-04-16 12:00:00 17.2 10 Sudeste 23 Este 0 -- -- 46
2019-04-16 11:00:00 15.2 9 Sudeste 17 Este 0 -- -- 65
2019-04-16 10:00:00 10.8 4 Sudoeste 7 Sudoeste 0 -- -- 89
2019-04-16 09:00:00 7.4 2 Oeste 5 Noroeste 0 -- -- 91
2019-04-16 08:00:00 6.5 4 Sudoeste 7 Sudoeste 0 -- -- 89
2019-04-16 07:00:00 7.2 4 Noroeste 8 Noroeste 0 -- -- 89
2019-04-16 06:00:00 7.6 0 Calma 6 Sudoeste 0 -- -- 87
2019-04-16 05:00:00 8.1 3 Noroeste 9 Noroeste 0 -- -- 85
2019-04-16 04:00:00 8.9 3 Noroeste 7 Sudoeste 0 -- -- 83
2019-04-16 03:00:00 10.3 2 Oeste 8 Sudoeste 0 -- -- 81
2019-04-16 02:00:00 11.3 3 Noroeste 9 Oeste 0 -- -- 80
2019-04-16 01:00:00 12 5 Noroeste 12 Oeste 0 -- -- 79
2019-04-16 00:00:00 13.2 6 Oeste 17 Oeste 0 -- -- 74
2019-04-15 23:00:00 14.7 5 Oeste 22 Noroeste 0 -- -- 73
2019-04-15 22:00:00 15.5 11 Oeste 32 Oeste 0 -- -- 69
2019-04-15 21:00:00 17.3 15 Noroeste 37 Noroeste 0 -- -- 60
2019-04-15 20:00:00 18.2 9 Oeste 36 Oeste 0 -- -- 65
2019-04-15 19:00:00 22.9 14 Oeste 37 Sudoeste 0 -- -- 43
2019-04-15 18:00:00 25.4 19 Sudoeste 42 Sudoeste 0 -- -- 29
2019-04-15 17:00:00 25.8 18 Sudoeste 46 Sudoeste 0 -- -- 26
2019-04-15 16:00:00 25.6 21 Sudoeste 44 Sudoeste 0 -- -- 28
2019-04-15 15:00:00 25.7 20 Sudoeste 37 Sudoeste 0 -- -- 30
2019-04-15 14:00:00 24.2 20 Sudoeste 38 Sudoeste 0 -- -- 32
2019-04-15 13:00:00 23 16 Sudoeste 36 Sur 0 -- -- 34
2019-04-15 12:00:00 21.3 13 Sudoeste 26 Sur 0 -- -- 50
2019-04-15 11:00:00 19.4 6 Sudeste 17 Sudeste 0 -- -- 59
2019-04-15 10:00:00 16.6 5 Sudeste 17 Sudeste 0 -- -- 77
2019-04-15 09:00:00 13.3 8 Este 15 Este 0 -- -- 85
2019-04-15 08:00:00 10.8 4 Sudeste 8 Sudoeste 0 -- -- 88
2019-04-15 07:00:00 10.6 3 Oeste 10 Este 0 -- -- 86
2019-04-15 06:00:00 10.7 0 Calma 12 Este 0 -- -- 85
2019-04-15 05:00:00 10.2 3 Norte 8 Sudeste 0 -- -- 83
2019-04-15 04:00:00 10.9 2 Noroeste 8 Sudoeste 0 -- -- 82
2019-04-15 03:00:00 12.1 0 Calma 7 Sudoeste 0 -- -- 80
2019-04-15 02:00:00 13.7 4 Sudoeste 7 Sudoeste 0 -- -- 77
2019-04-15 01:00:00 14.6 0 Calma 5 Sudeste 0 -- -- 74
2019-04-15 00:00:00 16.3 0 Calma 6 Oeste 0 -- -- 69
2019-04-14 23:00:00 17 2 Sudoeste 8 Sudoeste 0 -- -- 67
2019-04-14 22:00:00 17.8 3 Oeste 13 Noroeste 0 -- -- 62
2019-04-14 21:00:00 19.1 9 Noroeste 21 Oeste 0 -- -- 58
2019-04-14 20:00:00 20.9 12 Noroeste 19 Noroeste 0 -- -- 54
2019-04-14 19:00:00 22.5 8 Oeste 23 Oeste 0 -- -- 47
2019-04-14 18:00:00 23.2 8 Oeste 23 Sudoeste 0 -- -- 46
2019-04-14 17:00:00 22.9 9 Noroeste 23 Noroeste 0 -- -- 47
2019-04-14 16:00:00 22.6 12 Oeste 26 Sudoeste 0 -- -- 47
2019-04-14 15:00:00 22 10 Oeste 26 Oeste 0 -- -- 49
2019-04-14 14:00:00 20.5 9 Noroeste 22 Sudoeste 0 -- -- 55
2019-04-14 13:00:00 19.4 8 Oeste 20 Oeste 0 -- -- 60
2019-04-14 12:00:00 18.5 6 Sudoeste 13 Oeste 0 -- -- 61
2019-04-14 11:00:00 15.2 3 Norte 8 Oeste 0 -- -- 68
2019-04-14 10:00:00 11.7 4 Sudoeste 6 Sudoeste 0 -- -- 72
2019-04-14 09:00:00 8.7 0 Calma 4 Sudoeste 0 -- -- 78
2019-04-14 08:00:00 8.3 0 Calma 4 Norte 0 -- -- 77
2019-04-14 07:00:00 9.2 4 Sudoeste 6 Sudoeste 0 -- -- 71
2019-04-14 06:00:00 10.2 4 Noroeste 5 Noroeste 0 -- -- 66
2019-04-14 05:00:00 9.9 5 Noroeste 8 Noroeste 0 -- -- 67
2019-04-14 04:00:00 9.8 4 Noroeste 6 Oeste 0 -- -- 68
2019-04-14 03:00:00 9.9 2 Oeste 8 Sudoeste 0 -- -- 68
2019-04-14 02:00:00 10.8 4 Noroeste 8 Noroeste 0 -- -- 64
2019-04-14 01:00:00 12.4 0 Calma 8 Noroeste 0 -- -- 59
2019-04-14 00:00:00 13.6 5 Noroeste 8 Noroeste 0 -- -- 53
2019-04-13 23:00:00 13.9 5 Noroeste 9 Oeste 0 -- -- 53
2019-04-13 22:00:00 15.4 3 Sudoeste 13 Noroeste 0 -- -- 49
2019-04-13 21:00:00 17.7 8 Noroeste 22 Oeste 0 -- -- 41
2019-04-13 20:00:00 20.3 10 Noroeste 21 Sudoeste 0 -- -- 38
2019-04-13 19:00:00 21.5 9 Oeste 22 Oeste 0 -- -- 32
2019-04-13 18:00:00 21.9 12 Sudoeste 26 Oeste 0 -- -- 30
2019-04-13 17:00:00 21.8 9 Oeste 24 Sudoeste 0 -- -- 32
2019-04-13 16:00:00 20.7 8 Oeste 23 Noroeste 0 -- -- 35
2019-04-13 15:00:00 20.2 8 Sudoeste 21 Oeste 0 -- -- 35
2019-04-13 14:00:00 18.8 10 Noroeste 22 Noroeste 0 -- -- 36
2019-04-13 13:00:00 17.8 13 Noroeste 24 Noroeste 0 -- -- 38
2019-04-13 12:00:00 16.9 5 Oeste 15 Oeste 0 -- -- 42
2019-04-13 11:00:00 14.5 4 Oeste 9 Noroeste 0 -- -- 47
2019-04-13 10:00:00 9.4 3 Sudoeste 5 Sudoeste 0 -- -- 75
2019-04-13 09:00:00 5.5 2 Oeste 9 Oeste 0 -- -- 83
2019-04-13 08:00:00 3.8 3 Noroeste 9 Noroeste 0 -- -- 81
2019-04-13 07:00:00 4.6 2 Oeste 6 Sudoeste 0 -- -- 80
2019-04-13 06:00:00 5.3 4 Sudoeste 8 Oeste 0 -- -- 77
2019-04-13 05:00:00 6 0 Calma 6 Noroeste 0 -- -- 75
2019-04-13 04:00:00 7 2 Oeste 5 Noroeste 0 -- -- 72
2019-04-13 03:00:00 8.1 0 Calma 4 Noroeste 0 -- -- 70
2019-04-13 02:00:00 10 4 Noroeste 6 Noroeste 0 -- -- 60
2019-04-13 01:00:00 10.1 3 Norte 9 Oeste 0 -- -- 62
2019-04-13 00:00:00 11.1 5 Oeste 9 Noroeste 0 -- -- 57
2019-04-12 23:00:00 11.8 4 Noroeste 8 Noroeste 0 -- -- 56
2019-04-12 22:00:00 13.3 5 Sudoeste 10 Oeste 0 -- -- 52
2019-04-12 21:00:00 15.4 5 Noroeste 14 Oeste 0 -- -- 43
2019-04-12 20:00:00 17.6 8 Noroeste 21 Noroeste 0 -- -- 37
2019-04-12 19:00:00 18.3 8 Noroeste 19 Noroeste 0 -- -- 34
2019-04-12 18:00:00 18.5 6 Noroeste 22 Oeste 0 -- -- 35
2019-04-12 17:00:00 17.7 12 Noroeste 23 Norte 0 -- -- 37
2019-04-12 16:00:00 17.3 9 Noroeste 20 Norte 0 -- -- 39
2019-04-12 15:00:00 16.3 8 Norte 21 Noroeste 0 -- -- 41
2019-04-12 14:00:00 15.6 9 Oeste 20 Noroeste 0 -- -- 42
2019-04-12 13:00:00 14.4 12 Norte 21 Norte 0 -- -- 43
2019-04-12 12:00:00 13.7 5 Sudeste 15 Sudeste 0 -- -- 53
2019-04-12 11:00:00 11.6 6 Sudeste 14 Este 0 -- -- 68
2019-04-12 10:00:00 7.3 3 Noroeste 7 Noroeste 0 -- -- 90
2019-04-12 09:00:00 3.4 0 Calma 7 Noroeste 0 -- -- 91
2019-04-12 08:00:00 2.4 0 Calma 5 Sudoeste 0 -- -- 90
2019-04-12 07:00:00 3.2 2 Oeste 8 Noroeste 0 -- -- 90
2019-04-12 06:00:00 3.5 3 Noroeste 8 Sudoeste 0 -- -- 89
2019-04-12 05:00:00 4 2 Noroeste 7 Oeste 0 -- -- 88
2019-04-12 04:00:00 4.1 4 Noroeste 9 Sudoeste 0 -- -- 86
2019-04-12 03:00:00 5.4 4 Noroeste 8 Noroeste 0 -- -- 84
2019-04-12 02:00:00 5.7 2 Oeste 7 Oeste 0 -- -- 83
2019-04-12 01:00:00 6.1 5 Noroeste 7 Noroeste 0 -- -- 82
2019-04-12 00:00:00 7.4 0 Calma 5 Sudoeste 0 -- -- 79
2019-04-11 23:00:00 9.2 0 Calma 9 Noroeste 0 -- -- 74
2019-04-11 22:00:00 9.9 6 Noroeste 10 Oeste 0 -- -- 70
2019-04-11 21:00:00 11.1 4 Noroeste 17 Sudoeste 0 -- -- 65
2019-04-11 20:00:00 12.2 9 Este 39 Este 0 -- -- 58
2019-04-11 19:00:00 12.5 15 Nordeste 37 Norte 0.4 -- -- 60
2019-04-11 18:00:00 15 5 Norte 25 Noroeste 0 -- -- 42
2019-04-11 17:00:00 16.8 6 Oeste 22 Noroeste 0 -- -- 42
2019-04-11 16:00:00 14.5 12 Norte 23 Norte 0 -- -- 46
2019-04-11 15:00:00 14.4 9 Noroeste 24 Noroeste 0 -- -- 49
2019-04-11 14:00:00 13.9 10 Noroeste 23 Norte 0 -- -- 49
2019-04-11 13:00:00 12.7 8 Norte 20 Noroeste 0 -- -- 55
2019-04-11 12:00:00 11.9 5 Norte 13 Nordeste 0 -- -- 62
2019-04-11 11:00:00 10.3 4 Nordeste 12 Sudeste 0 -- -- 88
2019-04-11 10:00:00 6.7 4 Noroeste 7 Oeste 0 -- -- 94
2019-04-11 09:00:00 3.9 2 Sudoeste 6 Sudoeste 0 -- -- 94
2019-04-11 08:00:00 3.2 0 Calma 6 Sudoeste 0 -- -- 93
2019-04-11 07:00:00 3.2 0 Calma 6 Sudoeste 0 -- -- 92
2019-04-11 06:00:00 3.7 0 Calma 8 Noroeste 0 -- -- 92
2019-04-11 05:00:00 4.3 2 Oeste 7 Sudoeste 0 -- -- 91
2019-04-11 04:00:00 4.7 3 Noroeste 5 Noroeste 0 -- -- 90
2019-04-11 03:00:00 6.1 0 Calma 8 Sudoeste 0 -- -- 89
2019-04-11 02:00:00 7.3 3 Oeste 8 Noroeste 0 -- -- 86
2019-04-11 01:00:00 7.5 4 Noroeste 6 Noroeste 0 -- -- 87
2019-04-11 00:00:00 7.8 0 Calma 7 Sudoeste 0 -- -- 86
2019-04-10 23:00:00 8.4 4 Noroeste 13 Noroeste 0 -- -- 83
2019-04-10 22:00:00 8.8 9 Norte 21 Nordeste 1.4 -- -- 83
2019-04-10 21:00:00 8.9 10 Nordeste 31 Nordeste 1.8 -- -- 80
2019-04-10 20:00:00 12.2 9 Norte 36 Noroeste 0 -- -- 60
2019-04-10 19:00:00 14.2 14 Oeste 38 Noroeste 0 -- -- 51
2019-04-10 18:00:00 14.7 15 Oeste 31 Oeste 0 -- -- 50
2019-04-10 17:00:00 14.3 12 Oeste 31 Oeste 0 -- -- 52
2019-04-10 16:00:00 13.9 13 Oeste 33 Noroeste 0 -- -- 52
2019-04-10 15:00:00 13.1 14 Oeste 35 Oeste 0 -- -- 54
2019-04-10 14:00:00 12 15 Noroeste 36 Noroeste 0 -- -- 64
2019-04-10 13:00:00 10.5 15 Noroeste 31 Noroeste 0 -- -- 67
2019-04-10 12:00:00 10.1 13 Noroeste 32 Oeste 0 -- -- 72
2019-04-10 11:00:00 8.8 13 Oeste 26 Noroeste 0 -- -- 80
2019-04-10 10:00:00 7.7 8 Oeste 20 Oeste 0 -- -- 88
2019-04-10 09:00:00 6.7 6 Oeste 15 Oeste 0 -- -- 89
2019-04-10 08:00:00 5.5 6 Noroeste 21 Noroeste 0 -- -- 89
2019-04-10 07:00:00 6.3 11 Noroeste 23 Noroeste 0 -- -- 90
2019-04-10 06:00:00 6.1 7 Noroeste 18 Oeste 0 -- -- 90
2019-04-10 05:00:00 6.5 6 Oeste 17 Oeste 0 -- -- 89
2019-04-10 04:00:00 6.7 7 Noroeste 15 Noroeste 0 -- -- 88
2019-04-10 03:00:00 7.2 6 Oeste 17 Oeste 0 -- -- 87
2019-04-10 02:00:00 7.2 6 Oeste 13 Oeste 0 -- -- 86
2019-04-10 01:00:00 7.8 6 Oeste 24 Oeste 0 -- -- 84
2019-04-10 00:00:00 9 14 Oeste 24 Sudoeste 0 -- -- 82
2019-04-09 23:00:00 8.6 8 Oeste 15 Oeste 0 -- -- 81
2019-04-09 22:00:00 8.7 5 Noroeste 15 Oeste 0 -- -- 79
2019-04-09 21:00:00 11 9 Oeste 28 Oeste 0 -- -- 70
2019-04-09 20:00:00 12.7 14 Oeste 31 Oeste 0 -- -- 66
2019-04-09 19:00:00 13.3 13 Oeste 47 Oeste 0 -- -- 65
2019-04-09 18:00:00 13.2 12 Oeste 49 Noroeste 0 -- -- 65
2019-04-09 17:00:00 14.5 16 Oeste 47 Sudoeste 0 -- -- 56
2019-04-09 16:00:00 12.1 13 Oeste 37 Noroeste 0.2 -- -- 76
2019-04-09 15:00:00 11.2 17 Oeste 39 Oeste 0 -- -- 71
2019-04-09 14:00:00 8.6 12 Oeste 43 Sudoeste 0.4 -- -- 80
2019-04-09 13:00:00 12.4 13 Oeste 36 Sudoeste 0 -- -- 59
2019-04-09 12:00:00 11.8 12 Oeste 32 Sudoeste 0 -- -- 64
2019-04-09 11:00:00 10.5 14 Oeste 28 Sudoeste 0 -- -- 76
2019-04-09 10:00:00 9.1 10 Oeste 22 Oeste 0 -- -- 87
2019-04-09 09:00:00 7.4 8 Oeste 17 Oeste 0 -- -- 91
2019-04-09 08:00:00 6.8 2 Oeste 13 Oeste 0 -- -- 90
2019-04-09 07:00:00 6.4 3 Noroeste 12 Sudoeste 0 -- -- 90
2019-04-09 06:00:00 6.5 5 Oeste 13 Sudoeste 0 -- -- 89
2019-04-09 05:00:00 6.2 4 Oeste 13 Oeste 0 -- -- 90
2019-04-09 04:00:00 6.5 6 Noroeste 12 Noroeste 0 -- -- 89
2019-04-09 03:00:00 6.8 4 Oeste 10 Oeste 0 -- -- 85
2019-04-09 02:00:00 7.6 6 Oeste 13 Sudoeste 0 -- -- 83
2019-04-09 01:00:00 8.5 7 Oeste 14 Sudoeste 0 -- -- 81
2019-04-09 00:00:00 8.5 5 Oeste 18 Oeste 0 -- -- 75
2019-04-08 23:00:00 10 5 Oeste 10 Noroeste 0 -- -- 72
2019-04-08 22:00:00 12.1 4 Oeste 26 Noroeste 0 -- -- 63
2019-04-08 21:00:00 12.8 13 Noroeste 32 Noroeste 0 -- -- 65
2019-04-08 20:00:00 14.4 12 Noroeste 23 Noroeste 0 -- -- 65
2019-04-08 19:00:00 15.5 10 Oeste 32 Oeste 0 -- -- 61
2019-04-08 18:00:00 15.8 10 Oeste 32 Sudoeste 0 -- -- 61
2019-04-08 17:00:00 16 12 Oeste 35 Noroeste 0 -- -- 68
2019-04-08 16:00:00 14.4 9 Oeste 28 Sudoeste 0 -- -- 79
2019-04-08 15:00:00 13.1 10 Sudoeste 23 Oeste 2.6 -- -- 87
2019-04-08 14:00:00 14.1 9 Oeste 24 Oeste 0.2 -- -- 80
2019-04-08 13:00:00 12.3 12 Oeste 24 Sudoeste 1.2 -- -- 87
2019-04-08 12:00:00 13 12 Sudoeste 27 Sudoeste 0 -- -- 84
2019-04-08 11:00:00 12.2 9 Oeste 22 Oeste 0 -- -- 85
2019-04-08 10:00:00 10.8 11 Oeste 19 Sudoeste 0.2 -- -- 89
2019-04-08 09:00:00 10 9 Oeste 17 Oeste 0 -- -- 90
2019-04-08 08:00:00 9.7 3 Oeste 16 Oeste 0 -- -- 92
2019-04-08 07:00:00 9.8 9 Oeste 13 Oeste 0 -- -- 92
2019-04-08 06:00:00 9.8 3 Noroeste 14 Oeste 0 -- -- 92
2019-04-08 05:00:00 10.2 7 Oeste 16 Oeste 0.8 -- -- 91
2019-04-08 04:00:00 10.4 5 Sudoeste 14 Sudoeste 0 -- -- 90
2019-04-08 03:00:00 10.4 3 Noroeste 13 Oeste 0 -- -- 90
2019-04-08 02:00:00 10.6 5 Oeste 14 Oeste 0 -- -- 90
2019-04-08 01:00:00 11 6 Oeste 17 Sudoeste 0 -- -- 89
2019-04-08 00:00:00 10.7 7 Sudoeste 13 Sudoeste 0.6 -- -- 87
2019-04-07 23:00:00 10.7 5 Noroeste 19 Sudoeste 0 -- -- 83
2019-04-07 22:00:00 10.8 7 Sudoeste 13 Sudoeste 0 -- -- 82
2019-04-07 21:00:00 10.9 7 Sudoeste 21 Sudoeste 0 -- -- 81
2019-04-07 20:00:00 11.2 12 Sudoeste 22 Sudoeste 0 -- -- 78
2019-04-07 19:00:00 11.3 8 Sudoeste 23 Sudoeste 0 -- -- 76
2019-04-07 18:00:00 11.5 8 Oeste 22 Oeste 0 -- -- 76
2019-04-07 17:00:00 11.5 9 Oeste 24 Oeste 0 -- -- 72
2019-04-07 16:00:00 11.1 12 Oeste 30 Oeste 0 -- -- 75
2019-04-07 15:00:00 11.5 10 Oeste 30 Oeste 0 -- -- 67
2019-04-07 14:00:00 10.3 12 Oeste 35 Sudoeste 0 -- -- 72
2019-04-07 13:00:00 10 10 Oeste 30 Sudoeste 0 -- -- 77
2019-04-07 12:00:00 9.3 10 Oeste 31 Oeste 0 -- -- 77
2019-04-07 11:00:00 8.6 10 Oeste 28 Oeste 0 -- -- 86
2019-04-07 10:00:00 7 9 Oeste 24 Sudoeste 0.2 -- -- 90
2019-04-07 09:00:00 6.6 7 Oeste 20 Noroeste 0 -- -- 89
2019-04-07 08:00:00 6.5 8 Oeste 21 Oeste 0 -- -- 89
2019-04-07 07:00:00 6.4 10 Oeste 26 Oeste 0 -- -- 90
2019-04-07 06:00:00 6.4 10 Oeste 32 Oeste 0.2 -- -- 90
2019-04-07 05:00:00 6.4 16 Oeste 30 Oeste 0.4 -- -- 89
2019-04-07 04:00:00 6.6 8 Oeste 30 Oeste 0.2 -- -- 90
2019-04-07 03:00:00 6.4 12 Oeste 29 Oeste 0 -- -- 90
2019-04-07 02:00:00 5.8 10 Oeste 21 Oeste 0 -- -- 90
2019-04-07 01:00:00 4.7 6 Oeste 15 Oeste 0 -- -- 89
2019-04-07 00:00:00 5 4 Oeste 28 Oeste 0 -- -- 87
2019-04-06 23:00:00 5.3 8 Oeste 21 Oeste 0 -- -- 85
2019-04-06 22:00:00 5.9 10 Oeste 23 Oeste 0 -- -- 83
2019-04-06 21:00:00 6.3 8 Oeste 19 Sudoeste 0 -- -- 83
2019-04-06 20:00:00 7.1 8 Oeste 35 Oeste 0 -- -- 82
2019-04-06 19:00:00 8.2 12 Oeste 31 Noroeste 0 -- -- 82
2019-04-06 18:00:00 5.7 15 Oeste 51 Noroeste 1.4 -- -- 83
2019-04-06 17:00:00 8.4 14 Sudoeste 29 Sudoeste 0.2 -- -- 79
2019-04-06 16:00:00 9.6 15 Oeste 35 Noroeste 0 -- -- 76
2019-04-06 15:00:00 5.9 8 Oeste 34 Oeste 3 -- -- 83
2019-04-06 14:00:00 8.9 12 Oeste 38 Oeste 0 -- -- 71
2019-04-06 13:00:00 10.3 14 Oeste 38 Oeste 0 -- -- 63
2019-04-06 12:00:00 8.9 14 Sudoeste 42 Oeste 0 -- -- 76
2019-04-06 11:00:00 7.2 12 Oeste 37 Sudoeste 0 -- -- 82
2019-04-06 10:00:00 6.7 13 Oeste 28 Oeste 0 -- -- 86
2019-04-06 09:00:00 5.8 7 Oeste 28 Oeste 0 -- -- 89
2019-04-06 08:00:00 5.5 8 Oeste 32 Oeste 0.2 -- -- 89
2019-04-06 07:00:00 5.4 8 Oeste 28 Oeste 0.6 -- -- 88
2019-04-06 06:00:00 5.3 8 Oeste 28 Oeste 0.2 -- -- 86
2019-04-06 05:00:00 5.3 11 Oeste 23 Sudoeste 0 -- -- 86
2019-04-06 04:00:00 5.3 10 Oeste 29 Sudoeste 0 -- -- 86
2019-04-06 03:00:00 5.4 14 Oeste 30 Oeste 0.2 -- -- 87
2019-04-06 02:00:00 5.6 12 Oeste 28 Sudoeste 0 -- -- 84
2019-04-06 01:00:00 5.7 10 Oeste 24 Oeste 0 -- -- 83
2019-04-06 00:00:00 5.7 12 Oeste 26 Oeste 0.2 -- -- 82
2019-04-05 23:00:00 6.4 10 Sudoeste 30 Sudoeste 0.2 -- -- 79
2019-04-05 22:00:00 6.9 11 Sudoeste 27 Sudoeste 0 -- -- 71
2019-04-05 21:00:00 7.8 4 Oeste 17 Oeste 0 -- -- 63
2019-04-05 20:00:00 8.9 9 Oeste 26 Oeste 0 -- -- 57
2019-04-05 19:00:00 8.4 14 Oeste 42 Oeste 0 -- -- 63
2019-04-05 18:00:00 10.9 15 Oeste 43 Oeste 0 -- -- 49
2019-04-05 17:00:00 10.4 12 Oeste 39 Oeste 0 -- -- 58
2019-04-05 16:00:00 9.7 15 Oeste 27 Oeste 0 -- -- 76
2019-04-05 15:00:00 6.9 7 Oeste 21 Oeste 0.2 -- -- 89
2019-04-05 14:00:00 5.9 15 Oeste 38 Sudoeste 2.4 -- -- 83
2019-04-05 13:00:00 8.3 12 Sudoeste 24 Sur 0.2 -- -- 86
2019-04-05 12:00:00 7.5 13 Sudoeste 26 Sur 0 -- -- 86
2019-04-05 11:00:00 6.7 6 Sudeste 23 Sudeste 0 -- -- 85
2019-04-05 10:00:00 6.5 10 Sudeste 27 Sudeste 0.4 -- -- 85
2019-04-05 09:00:00 6.7 9 Sudoeste 19 Sudoeste 1.6 -- -- 83
2019-04-05 08:00:00 7 8 Oeste 23 Sudoeste 0.4 -- -- 79
2019-04-05 07:00:00 8.2 10 Sudoeste 25 Sudoeste 0 -- -- 67
2019-04-05 06:00:00 7.7 5 Sudeste 19 Sudeste 0 -- -- 71
2019-04-05 05:00:00 8.2 12 Sudoeste 23 Sur 0 -- -- 66
2019-04-05 04:00:00 8.4 12 Sudoeste 24 Sudoeste 0 -- -- 63
2019-04-05 03:00:00 9.1 13 Sudoeste 22 Sudoeste 0 -- -- 57
2019-04-05 02:00:00 9.2 6 Sudoeste 21 Sudoeste 0 -- -- 55
2019-04-05 01:00:00 10.4 9 Sudoeste 17 Sudoeste 0 -- -- 48
2019-04-05 00:00:00 10.4 6 Sudoeste 15 Sudoeste 0 -- -- 46
2019-04-04 23:00:00 11.2 8 Sudoeste 17 Sudoeste 0 -- -- 45
2019-04-04 22:00:00 12.7 12 Sudoeste 19 Sur 0 -- -- 45
2019-04-04 21:00:00 13.7 13 Sudoeste 25 Sudoeste 0 -- -- 43
2019-04-04 20:00:00 16.1 17 Sudoeste 33 Sudoeste 0 -- -- 36
2019-04-04 19:00:00 17.2 13 Noroeste 26 Oeste 0 -- -- 31
2019-04-04 18:00:00 18 9 Oeste 24 Oeste 0 -- -- 30
2019-04-04 17:00:00 16.8 9 Noroeste 25 Oeste 0 -- -- 32
2019-04-04 16:00:00 16.3 10 Sudoeste 21 Oeste 0 -- -- 31
2019-04-04 15:00:00 15.2 5 Noroeste 19 Sur 0 -- -- 31
2019-04-04 14:00:00 13.4 5 Este 18 Sur 0 -- -- 33
2019-04-04 13:00:00 12 6 Este 21 Este 0 -- -- 36
2019-04-04 12:00:00 10.8 10 Sudeste 28 Este 0 -- -- 39
2019-04-04 11:00:00 9.6 13 Este 27 Este 0 -- -- 44
2019-04-04 10:00:00 8.4 9 Este 22 Este 0 -- -- 44
2019-04-04 09:00:00 6.2 8 Sudeste 18 Sudeste 0 -- -- 49
2019-04-04 08:00:00 5.7 9 Sudeste 21 Sudeste 0 -- -- 51
2019-04-04 07:00:00 6 8 Sudeste 22 Este 0 -- -- 51
2019-04-04 06:00:00 6.5 7 Sudeste 15 Sudeste 0 -- -- 51
2019-04-04 05:00:00 5.4 3 Oeste 8 Noroeste 0 -- -- 59
2019-04-04 04:00:00 5.3 4 Noroeste 9 Noroeste 0 -- -- 60
2019-04-04 03:00:00 6.1 5 Noroeste 11 Sudoeste 0 -- -- 57
2019-04-04 02:00:00 6.7 7 Sudoeste 10 Sudoeste 0 -- -- 56
2019-04-04 01:00:00 7.7 4 Sudoeste 13 Oeste 0 -- -- 54
2019-04-04 00:00:00 9.7 5 Oeste 23 Noroeste 0 -- -- 48
2019-04-03 23:00:00 11 12 Noroeste 27 Noroeste 0 -- -- 45
2019-04-03 22:00:00 12.1 5 Oeste 21 Oeste 0 -- -- 57
2019-04-03 21:00:00 13.4 10 Oeste 30 Noroeste 0 -- -- 54
2019-04-03 20:00:00 15.4 19 Noroeste 33 Oeste 0 -- -- 46
2019-04-03 19:00:00 17.2 15 Oeste 35 Noroeste 0 -- -- 42
2019-04-03 18:00:00 18.9 14 Oeste 37 Noroeste 0 -- -- 34
2019-04-03 17:00:00 19.4 15 Oeste 44 Oeste 0 -- -- 32
2019-04-03 16:00:00 19 17 Oeste 44 Oeste 0 -- -- 35
2019-04-03 15:00:00 18.8 15 Oeste 36 Sudoeste 0 -- -- 34
2019-04-03 14:00:00 17.9 12 Oeste 37 Oeste 0 -- -- 38
2019-04-03 13:00:00 17.1 14 Oeste 32 Oeste 0 -- -- 43
2019-04-03 12:00:00 15.8 12 Oeste 28 Oeste 0 -- -- 48
2019-04-03 11:00:00 13.1 8 Oeste 21 Noroeste 0 -- -- 70
2019-04-03 10:00:00 8.1 3 Sudoeste 4 Oeste 0 -- -- 88
2019-04-03 09:00:00 5.2 0 Calma 5 Sudoeste 0 -- -- 88
2019-04-03 08:00:00 4.6 0 Calma 6 Noroeste 0 -- -- 87
2019-04-03 07:00:00 4.4 4 Noroeste 8 Noroeste 0 -- -- 85
2019-04-03 06:00:00 5.1 2 Sudoeste 5 Sudoeste 0 -- -- 83
2019-04-03 05:00:00 5.7 0 Calma 6 Noroeste 0 -- -- 83
2019-04-03 04:00:00 6.3 2 Oeste 6 Sudoeste 0 -- -- 81
2019-04-03 03:00:00 7.3 2 Oeste 6 Sudoeste 0 -- -- 79
2019-04-03 02:00:00 8.5 3 Sudoeste 6 Sudoeste 0 -- -- 76
2019-04-03 01:00:00 9.4 3 Noroeste 6 Noroeste 0 -- -- 72
2019-04-03 00:00:00 10.9 3 Norte 5 Sudoeste 0 -- -- 68
2019-04-02 23:00:00 11.9 4 Noroeste 7 Noroeste 0 -- -- 65
2019-04-02 22:00:00 13 4 Oeste 11 Noroeste 0 -- -- 62
2019-04-02 21:00:00 15.3 5 Oeste 23 Oeste 0 -- -- 55
2019-04-02 20:00:00 18 8 Oeste 23 Oeste 0 -- -- 47
2019-04-02 19:00:00 18 12 Noroeste 24 Noroeste 0 -- -- 49
2019-04-02 18:00:00 17.8 9 Oeste 28 Noroeste 0 -- -- 50
2019-04-02 17:00:00 18.2 7 Oeste 16 Sudoeste 0 -- -- 48
2019-04-02 16:00:00 17.8 8 Sudoeste 22 Sudoeste 0 -- -- 51
2019-04-02 15:00:00 18 9 Sudoeste 17 Sudoeste 0 -- -- 52
2019-04-02 14:00:00 16.4 8 Sudoeste 17 Sudoeste 0 -- -- 61
2019-04-02 13:00:00 13.9 6 Sudoeste 15 Sudoeste 0 -- -- 72
2019-04-02 12:00:00 13 7 Sudoeste 13 Sudoeste 0 -- -- 85
2019-04-02 11:00:00 10.1 5 Sudoeste 7 Sudoeste 0 -- -- 94
2019-04-02 10:00:00 7.7 0 Calma 8 Sudoeste 0 -- -- 94
2019-04-02 09:00:00 7.2 0 Calma 6 Noroeste 0 -- -- 93
2019-04-02 08:00:00 5.6 2 Noroeste 8 Sudoeste 0 -- -- 92
2019-04-02 07:00:00 6.8 3 Sudoeste 6 Sudoeste 0 -- -- 91
2019-04-02 06:00:00 7.1 2 Sudoeste 5 Sudoeste 0 -- -- 90
2019-04-02 05:00:00 8.5 0 Calma 6 Sudoeste 0 -- -- 90
2019-04-02 04:00:00 9.2 2 Noroeste 8 Noroeste 0 -- -- 89
2019-04-02 03:00:00 9.9 4 Oeste 7 Noroeste 0 -- -- 87
2019-04-02 02:00:00 10.3 3 Oeste 5 Oeste 0 -- -- 84
2019-04-02 01:00:00 10.9 0 Calma 6 Sudoeste 0 -- -- 83
2019-04-02 00:00:00 11 3 Oeste 6 Sudoeste 0 -- -- 82
2019-04-01 23:00:00 11.5 3 Oeste 9 Noroeste 0 -- -- 81
2019-04-01 22:00:00 12.2 4 Noroeste 13 Oeste 0 -- -- 79
2019-04-01 21:00:00 12.9 4 Noroeste 13 Oeste 0 -- -- 76
2019-04-01 20:00:00 13.9 7 Sudoeste 17 Oeste 0 -- -- 70
2019-04-01 19:00:00 12.9 6 Noroeste 31 Sudoeste 1.2 -- -- 78
2019-04-01 18:00:00 16.8 6 Sudeste 14 Sudoeste 0 -- -- 52
2019-04-01 17:00:00 18.2 5 Sudoeste 16 Sur 0 -- -- 51
2019-04-01 16:00:00 15.9 8 Norte 23 Oeste 0 -- -- 60
2019-04-01 15:00:00 15.4 8 Noroeste 17 Oeste 0 -- -- 65
2019-04-01 14:00:00 13.7 6 Oeste 14 Oeste 0 -- -- 81
2019-04-01 13:00:00 11.2 5 Noroeste 9 Oeste 0.2 -- -- 91
2019-04-01 12:00:00 10.9 2 Noroeste 10 Sudeste 0 -- -- 92
2019-04-01 11:00:00 9.6 5 Este 15 Este 0 -- -- 93
2019-04-01 10:00:00 9.2 7 Este 12 Este 0.2 -- -- 93
2019-04-01 09:00:00 8.8 4 Sudeste 9 Sudeste 0 -- -- 92
2019-04-01 08:00:00 8.8 3 Sudeste 10 Este 0 -- -- 91
2019-04-01 07:00:00 8.6 3 Sur 7 Sur 0 -- -- 91
2019-04-01 06:00:00 8.3 3 Sudoeste 5 Sudoeste 0 -- -- 90
2019-04-01 05:00:00 8.4 0 Calma 7 Sudoeste 0 -- -- 90
2019-04-01 04:00:00 8.2 3 Sudoeste 6 Sudoeste 0 -- -- 89
2019-04-01 03:00:00 8.2 4 Sudoeste 8 Sudoeste 0 -- -- 88
2019-04-01 02:00:00 8.6 5 Sudoeste 8 Sudoeste 0 -- -- 85
2019-04-01 01:00:00 9.8 5 Oeste 9 Sudoeste 0 -- -- 83
2019-04-01 00:00:00 10.1 4 Norte 10 Norte 0 -- -- 82
2019-03-31 23:00:00 11.1 4 Sudoeste 17 Nordeste 0 -- -- 79
2019-03-31 22:00:00 11.3 10 Nordeste 22 Nordeste 0 -- -- 79
2019-03-31 21:00:00 12.1 9 Nordeste 18 Nordeste 0 -- -- 75
2019-03-31 20:00:00 12.8 9 Nordeste 17 Nordeste 0 -- -- 69
2019-03-31 19:00:00 13.1 8 Norte 21 Nordeste 0 -- -- 70
2019-03-31 18:00:00 12.6 7 Este 16 Sudeste 0 -- -- 75
2019-03-31 17:00:00 12.5 10 Nordeste 19 Nordeste 0 -- -- 76
2019-03-31 16:00:00 12.3 11 Nordeste 19 Nordeste 0 -- -- 80
2019-03-31 15:00:00 11.6 12 Nordeste 21 Nordeste 0 -- -- 82
2019-03-31 14:00:00 10.7 14 Norte 22 Norte 0 -- -- 83
2019-03-31 13:00:00 11.2 10 Norte 18 Norte 0 -- -- 82
2019-03-31 12:00:00 10.3 9 Noroeste 23 Norte 0 -- -- 88
2019-03-31 11:00:00 9.7 10 Norte 21 Norte 0 -- -- 90
2019-03-31 10:00:00 10.2 6 Sudoeste 10 Sudeste 0 -- -- 90
2019-03-31 09:00:00 9.9 7 Sudeste 17 Este 0 -- -- 89
2019-03-31 08:00:00 10 3 Sudeste 13 Este 0 -- -- 87
2019-03-31 07:00:00 9.8 0 Calma 10 Sudoeste 0 -- -- 86
2019-03-31 06:00:00 10.5 4 Sur 10 Sudoeste 0.2 -- -- 86
2019-03-31 05:00:00 11.1 8 Sudoeste 13 Oeste 0 -- -- 83
2019-03-31 03:00:00 11.9 5 Sudoeste 11 Noroeste 0 -- -- 79
2019-03-31 01:00:00 12.1 0 Calma 9 Oeste 0 -- -- 78
2019-03-31 00:00:00 12.7 3 Oeste 11 Sudoeste 0 -- -- 74
2019-03-30 23:00:00 13.1 6 Noroeste 19 Sudoeste 0.2 -- -- 70
2019-03-30 22:00:00 14.4 6 Noroeste 14 Este 0 -- -- 66
2019-03-30 21:00:00 15.2 5 Nordeste 30 Este 0.4 -- -- 58
2019-03-30 20:00:00 16.7 8 Nordeste 26 Este 0 -- -- 49
2019-03-30 19:00:00 18.8 12 Nordeste 22 Nordeste 0 -- -- 35
2019-03-30 18:00:00 19.7 12 Nordeste 23 Nordeste 0 -- -- 33
2019-03-30 17:00:00 20.1 10 Nordeste 21 Nordeste 0 -- -- 33
2019-03-30 16:00:00 21.3 9 Este 21 Este 0 -- -- 33
2019-03-30 15:00:00 20.7 8 Sudeste 20 Sudeste 0 -- -- 34
2019-03-30 14:00:00 19 10 Este 29 Este 0 -- -- 37
2019-03-30 13:00:00 19 7 Este 19 Este 0 -- -- 37
2019-03-30 12:00:00 17.5 8 Sudeste 18 Este 0 -- -- 42
2019-03-30 11:00:00 15.5 5 Oeste 11 Sudoeste 0 -- -- 48
2019-03-30 10:00:00 12.6 4 Sudoeste 11 Este 0 -- -- 55
2019-03-30 09:00:00 9 6 Este 12 Este 0 -- -- 64
2019-03-30 08:00:00 7.1 3 Sudoeste 11 Sudoeste 0 -- -- 66
2019-03-30 07:00:00 7.8 2 Oeste 8 Sur 0 -- -- 65
2019-03-30 06:00:00 10.5 5 Sudeste 14 Sudeste 0 -- -- 59
2019-03-30 05:00:00 10.7 6 Sudeste 19 Sudeste 0 -- -- 60
2019-03-30 04:00:00 10.8 5 Sudeste 14 Sudeste 0 -- -- 55
2019-03-30 03:00:00 9.3 2 Nordeste 8 Sudeste 0 -- -- 48
2019-03-30 02:00:00 11.2 0 Calma 12 Sudeste 0 -- -- 43
2019-03-30 01:00:00 12.3 4 Sudeste 14 Este 0 -- -- 37
2019-03-30 00:00:00 10.5 2 Sudoeste 8 Sudoeste 0 -- -- 47
2019-03-29 23:00:00 10.5 5 Noroeste 9 Sudoeste 0 -- -- 44
2019-03-29 22:00:00 12.7 0 Calma 5 Noroeste 0 -- -- 39
2019-03-29 21:00:00 15 3 Oeste 11 Sudeste 0 -- -- 34
2019-03-29 20:00:00 16.3 6 Sudeste 14 Sur 0 -- -- 31
2019-03-29 19:00:00 18 7 Este 13 Sur 0 -- -- 27
2019-03-29 18:00:00 19.1 5 Sudeste 16 Sur 0 -- -- 25
2019-03-29 17:00:00 19.8 7 Sur 21 Sur 0 -- -- 23
2019-03-29 16:00:00 19.5 6 Oeste 21 Sudoeste 0 -- -- 21
2019-03-29 15:00:00 19 10 Sur 21 Sur 0 -- -- 22
2019-03-29 14:00:00 17.1 6 Sudoeste 18 Este 0 -- -- 23
2019-03-29 13:00:00 15.7 4 Este 21 Este 0 -- -- 25
2019-03-29 12:00:00 14.8 9 Este 20 Este 0 -- -- 27
2019-03-29 11:00:00 13.3 10 Sudeste 17 Sudeste 0 -- -- 27
2019-03-29 10:00:00 11 10 Sudeste 16 Sudeste 0 -- -- 36
2019-03-29 09:00:00 6.2 2 Sudoeste 8 Sudoeste 0 -- -- 52
2019-03-29 08:00:00 2.3 0 Calma 9 Sudoeste 0 -- -- 59
2019-03-29 07:00:00 1.7 0 Calma 10 Sudoeste 0 -- -- 58
2019-03-29 06:00:00 2.8 0 Calma 10 Sudoeste 0 -- -- 54
2019-03-29 05:00:00 4.7 0 Calma 9 Noroeste 0 -- -- 48
2019-03-29 04:00:00 7.8 3 Sur 14 Este 0 -- -- 41
2019-03-29 03:00:00 9.4 4 Este 12 Sudeste 0 -- -- 37
2019-03-29 02:00:00 10.3 4 Sudeste 14 Este 0 -- -- 35
2019-03-29 01:00:00 11.1 5 Sudeste 14 Sudoeste 0 -- -- 33
2019-03-29 00:00:00 11.4 9 Este 19 Este 0 -- -- 33
2019-03-28 23:00:00 11.7 6 Este 21 Sudeste 0 -- -- 31
2019-03-28 22:00:00 13.4 11 Sudeste 25 Este 0 -- -- 28
2019-03-28 21:00:00 15.2 9 Sudeste 28 Este 0 -- -- 27
2019-03-28 20:00:00 17 9 Este 26 Este 0 -- -- 24
2019-03-28 19:00:00 18.9 9 Nordeste 26 Este 0 -- -- 21
2019-03-28 18:00:00 19.7 12 Este 32 Este 0 -- -- 22
2019-03-28 17:00:00 20.3 14 Este 30 Este 0 -- -- 20
2019-03-28 16:00:00 20.2 9 Sudeste 28 Sudeste 0 -- -- 18
2019-03-28 15:00:00 20 11 Sudeste 36 Sudeste 0 -- -- 17
2019-03-28 14:00:00 18.7 14 Sudeste 31 Este 0 -- -- 15
2019-03-28 13:00:00 18.1 12 Sur 23 Sur 0 -- -- 16
2019-03-28 12:00:00 15.7 9 Sudeste 27 Sudeste 0 -- -- 20
2019-03-28 11:00:00 13.6 14 Sudeste 26 Sudeste 0 -- -- 22
2019-03-28 10:00:00 11.3 11 Sudeste 19 Sudeste 0 -- -- 28
2019-03-28 09:00:00 8.1 7 Este 19 Este 0 -- -- 41
2019-03-28 08:00:00 5.5 6 Sudeste 12 Sur 0 -- -- 52
2019-03-28 07:00:00 4.4 5 Sudeste 10 Sudeste 0 -- -- 55
2019-03-28 06:00:00 4 4 Sur 9 Sudeste 0 -- -- 55
2019-03-28 05:00:00 5.5 0 Calma 13 Este 0 -- -- 48
2019-03-28 04:00:00 7.8 5 Este 14 Este 0 -- -- 42
2019-03-28 03:00:00 9.6 8 Sudeste 16 Este 0 -- -- 38
2019-03-28 02:00:00 10 6 Este 15 Este 0 -- -- 37
2019-03-28 01:00:00 10.5 6 Sudeste 14 Este 0 -- -- 36
2019-03-28 00:00:00 11.6 5 Sudeste 18 Este 0 -- -- 34
2019-03-27 23:00:00 12.5 9 Este 15 Este 0 -- -- 31
2019-03-27 22:00:00 13.8 7 Sudeste 35 Este 0 -- -- 27
2019-03-27 21:00:00 15.4 15 Nordeste 31 Nordeste 0 -- -- 25
2019-03-27 20:00:00 15.5 16 Nordeste 30 Norte 0 -- -- 24
2019-03-27 19:00:00 17.4 16 Nordeste 28 Nordeste 0 -- -- 20
2019-03-27 18:00:00 18.5 15 Nordeste 38 Este 0 -- -- 18
2019-03-27 17:00:00 19 13 Este 35 Sudeste 0 -- -- 16
2019-03-27 16:00:00 18.7 15 Nordeste 39 Este 0 -- -- 17
2019-03-27 15:00:00 18.1 15 Nordeste 38 Este 0 -- -- 17
2019-03-27 14:00:00 17.3 14 Este 41 Este 0 -- -- 20
2019-03-27 13:00:00 15.9 19 Este 41 Este 0 -- -- 23
2019-03-27 12:00:00 15.6 18 Este 33 Sudeste 0 -- -- 22
2019-03-27 11:00:00 14.1 13 Este 26 Este 0 -- -- 31
2019-03-27 10:00:00 11.4 6 Sudeste 17 Este 0 -- -- 37
2019-03-27 09:00:00 8.8 6 Sudeste 15 Este 0 -- -- 46
2019-03-27 08:00:00 6.1 4 Sudeste 17 Este 0 -- -- 61
2019-03-27 07:00:00 6 12 Este 19 Sudeste 0 -- -- 64
2019-03-27 06:00:00 6.1 9 Este 21 Sudeste 0 -- -- 64
2019-03-27 05:00:00 7.3 8 Sudeste 19 Sudeste 0 -- -- 61
2019-03-27 04:00:00 8.2 11 Sudeste 22 Sudeste 0 -- -- 59
2019-03-27 03:00:00 9.7 9 Sur 25 Sudeste 0 -- -- 52
2019-03-27 02:00:00 10.6 12 Sudeste 23 Sudeste 0 -- -- 49
2019-03-27 01:00:00 11 12 Sudeste 23 Este 0 -- -- 52
2019-03-27 00:00:00 12.1 11 Sudeste 22 Este 0 -- -- 54
2019-03-26 23:00:00 13.2 6 Sudeste 22 Sudeste 0 -- -- 51
2019-03-26 22:00:00 14.9 10 Sudeste 31 Este 0 -- -- 47
2019-03-26 21:00:00 16.7 17 Este 37 Nordeste 0 -- -- 42
2019-03-26 20:00:00 19 14 Nordeste 37 Nordeste 0 -- -- 35
2019-03-26 19:00:00 20.7 18 Nordeste 38 Este 0 -- -- 29
2019-03-26 18:00:00 22.3 19 Nordeste 38 Este 0 -- -- 24
2019-03-26 17:00:00 23.4 15 Este 38 Este 0 -- -- 20
2019-03-26 16:00:00 23.4 15 Este 41 Este 0 -- -- 19
2019-03-26 15:00:00 23 15 Este 33 Este 0 -- -- 19
2019-03-26 14:00:00 22.1 16 Este 34 Este 0 -- -- 21
2019-03-26 13:00:00 21.2 15 Este 33 Este 0 -- -- 22
2019-03-26 12:00:00 18.4 15 Este 31 Este 0 -- -- 27
2019-03-26 11:00:00 15.6 9 Sudeste 18 Sudeste 0 -- -- 36
2019-03-26 10:00:00 12.6 9 Sudeste 19 Sudeste 0 -- -- 41
2019-03-26 09:00:00 9.3 4 Sur 10 Sudeste 0 -- -- 48
2019-03-26 08:00:00 7.2 3 Sur 13 Sur 0 -- -- 49
2019-03-26 07:00:00 6.8 8 Este 15 Este 0 -- -- 52
2019-03-26 06:00:00 6.6 5 Sudoeste 10 Este 0 -- -- 53
2019-03-26 05:00:00 6.9 0 Calma 7 Sudoeste 0 -- -- 53
2019-03-26 04:00:00 8 3 Sudoeste 6 Sur 0 -- -- 48
2019-03-26 03:00:00 9.8 4 Sur 9 Este 0 -- -- 44
2019-03-26 02:00:00 10 3 Este 10 Sudeste 0 -- -- 43
2019-03-26 01:00:00 12.8 0 Calma 12 Sudeste 0 -- -- 36
2019-03-26 00:00:00 14.7 7 Sudeste 15 Sudeste 0 -- -- 33
2019-03-25 23:00:00 15.5 10 Sudeste 24 Este 0 -- -- 29
2019-03-25 22:00:00 18.9 12 Este 33 Este 0 -- -- 27
2019-03-25 21:00:00 17.7 15 Nordeste 29 Nordeste 0 -- -- 23
2019-03-25 20:00:00 18.6 15 Nordeste 28 Nordeste 0 -- -- 21
2019-03-25 19:00:00 20.2 15 Nordeste 30 Nordeste 0 -- -- 20
2019-03-25 18:00:00 21.3 17 Nordeste 28 Nordeste 0 -- -- 20
2019-03-25 17:00:00 21.9 9 Nordeste 30 Norte 0 -- -- 20
2019-03-25 16:00:00 21.8 11 Este 30 Este 0 -- -- 21
2019-03-25 15:00:00 21.4 14 Este 33 Este 0 -- -- 22
2019-03-25 14:00:00 20.7 16 Nordeste 36 Este 0 -- -- 23
2019-03-25 13:00:00 19.5 15 Sudeste 36 Este 0 -- -- 23
2019-03-25 12:00:00 18 15 Este 31 Este 0 -- -- 32
2019-03-25 11:00:00 16.1 9 Sudeste 18 Sudeste 0 -- -- 36
2019-03-25 10:00:00 12.2 9 Sudeste 15 Este 0 -- -- 51
2019-03-25 09:00:00 7.8 3 Sudoeste 8 Este 0 -- -- 74
2019-03-25 08:00:00 3.6 3 Noroeste 7 Sudoeste 0 -- -- 82
2019-03-25 07:00:00 3.4 0 Calma 9 Sudoeste 0 -- -- 80
2019-03-25 06:00:00 3.9 4 Noroeste 8 Sudoeste 0 -- -- 80
2019-03-25 05:00:00 5.3 0 Calma 8 Oeste 0 -- -- 78
2019-03-25 04:00:00 5.7 2 Noroeste 6 Noroeste 0 -- -- 75
2019-03-25 03:00:00 6.8 4 Sudoeste 8 Sudoeste 0 -- -- 72
2019-03-25 02:00:00 7.8 3 Noroeste 10 Sudoeste 0 -- -- 70
2019-03-25 01:00:00 8.7 0 Calma 7 Sudoeste 0 -- -- 65
2019-03-25 00:00:00 12.5 4 Sudeste 13 Este 0 -- -- 55
2019-03-24 23:00:00 13.5 3 Sudeste 13 Este 0 -- -- 53
2019-03-24 22:00:00 15.1 9 Este 15 Este 0 -- -- 48
2019-03-24 21:00:00 15.7 4 Sudeste 10 Sudeste 0 -- -- 46
2019-03-24 20:00:00 16.6 2 Sur 10 Sudoeste 0 -- -- 42
2019-03-24 19:00:00 18.4 3 Sudoeste 12 Sur 0 -- -- 38
2019-03-24 18:00:00 18.1 9 Sudeste 17 Sur 0 -- -- 38
2019-03-24 17:00:00 19.2 8 Sur 19 Sur 0 -- -- 37
2019-03-24 16:00:00 18.5 10 Sur 23 Sur 0 -- -- 39
2019-03-24 15:00:00 18.1 12 Sur 29 Sudeste 0 -- -- 40
2019-03-24 14:00:00 18.8 9 Sudeste 22 Este 0 -- -- 37
2019-03-24 13:00:00 17.7 10 Sudeste 22 Este 0 -- -- 39
2019-03-24 12:00:00 16.4 6 Sudeste 18 Este 0 -- -- 44
2019-03-24 11:00:00 14.2 9 Sudeste 18 Este 0 -- -- 50
2019-03-24 10:00:00 11.3 8 Sudeste 14 Sudeste 0 -- -- 59
2019-03-24 09:00:00 8.6 8 Sudeste 14 Este 0 -- -- 67
2019-03-24 08:00:00 5.9 6 Este 13 Este 0 -- -- 74
2019-03-24 07:00:00 5.6 0 Calma 10 Sudeste 0 -- -- 73
2019-03-24 06:00:00 7.4 6 Sudeste 12 Este 0 -- -- 72
2019-03-24 05:00:00 8 7 Sudeste 14 Sudeste 0 -- -- 70
2019-03-24 04:00:00 8.8 8 Sudeste 17 Sudeste 0 -- -- 68
2019-03-24 03:00:00 9.1 8 Sudeste 15 Este 0 -- -- 67
2019-03-24 02:00:00 9.9 7 Sudeste 16 Sudeste 0 -- -- 65
2019-03-24 01:00:00 10.2 7 Sudeste 16 Sudeste 0 -- -- 65
2019-03-24 00:00:00 10.7 6 Sudeste 17 Sudeste 0 -- -- 63
2019-03-23 23:00:00 11.5 7 Sudeste 19 Sudeste 0 -- -- 61
2019-03-23 22:00:00 11.9 12 Sudeste 23 Este 0 -- -- 60
2019-03-23 21:00:00 12.7 14 Sudeste 35 Este 0 -- -- 56
2019-03-23 20:00:00 13.7 18 Este 40 Este 0 -- -- 53
2019-03-23 19:00:00 14.9 18 Este 40 Sudeste 0 -- -- 49
2019-03-23 18:00:00 16.3 19 Este 45 Este 0 -- -- 46
2019-03-23 17:00:00 17 21 Este 46 Este 0 -- -- 41
2019-03-23 16:00:00 18.1 22 Este 48 Sudeste 0 -- -- 38
2019-03-23 15:00:00 18.2 22 Sudeste 43 Este 0 -- -- 37
2019-03-23 14:00:00 17.7 18 Este 40 Sudeste 0 -- -- 37
2019-03-23 13:00:00 16.9 20 Este 45 Este 0 -- -- 37
2019-03-23 12:00:00 15.1 10 Nordeste 38 Sudeste 0 -- -- 44
2019-03-23 11:00:00 14 19 Este 36 Este 0 -- -- 44
2019-03-23 10:00:00 12.6 15 Este 35 Este 0 -- -- 52
2019-03-23 09:00:00 7.2 3 Noroeste 6 Noroeste 0 -- -- 72
2019-03-23 08:00:00 3.9 3 Noroeste 8 Noroeste 0 -- -- 75
2019-03-23 07:00:00 4.3 0 Calma 7 Sudoeste 0 -- -- 74
2019-03-23 06:00:00 5.6 3 Sudoeste 5 Sudoeste 0 -- -- 69
2019-03-23 05:00:00 7.6 2 Sudoeste 13 Este 0 -- -- 61
2019-03-23 04:00:00 9.6 8 Este 14 Este 0 -- -- 59
2019-03-23 03:00:00 10.2 12 Este 19 Este 0 -- -- 57
2019-03-23 02:00:00 10.7 10 Este 21 Este 0 -- -- 53
2019-03-23 01:00:00 11 10 Este 25 Este 0 -- -- 51
2019-03-23 00:00:00 11.3 8 Sudeste 21 Este 0 -- -- 49
2019-03-22 23:00:00 12 10 Sudeste 22 Este 0 -- -- 45
2019-03-22 22:00:00 13.6 13 Este 21 Este 0 -- -- 41
2019-03-22 21:00:00 15.8 12 Este 27 Este 0 -- -- 39
2019-03-22 20:00:00 15.4 12 Nordeste 27 Nordeste 0 -- -- 37
2019-03-22 19:00:00 17 15 Nordeste 31 Este 0 -- -- 34
2019-03-22 18:00:00 18.4 10 Este 30 Nordeste 0 -- -- 30
2019-03-22 17:00:00 18.7 13 Nordeste 35 Este 0 -- -- 29
2019-03-22 16:00:00 18.1 15 Este 39 Este 0 -- -- 30
2019-03-22 15:00:00 17.4 18 Este 35 Este 0 -- -- 31
2019-03-22 14:00:00 16.5 12 Este 37 Este 0 -- -- 31
2019-03-22 13:00:00 15.1 18 Este 40 Este 0 -- -- 37
2019-03-22 12:00:00 13.2 16 Este 31 Este 0 -- -- 38
2019-03-22 11:00:00 11.3 17 Este 34 Este 0 -- -- 41
2019-03-22 10:00:00 7.6 4 Oeste 10 Sur 0 -- -- 53
2019-03-22 09:00:00 3.7 4 Sudoeste 8 Sur 0 -- -- 59
2019-03-22 08:00:00 3.3 4 Sudeste 12 Este 0 -- -- 59
2019-03-22 07:00:00 2 4 Sudoeste 8 Sur 0 -- -- 65
2019-03-22 06:00:00 2.6 4 Sudoeste 10 Sudoeste 0 -- -- 63
2019-03-22 05:00:00 4.9 2 Oeste 13 Este 0 -- -- 55
2019-03-22 04:00:00 6.7 8 Sudeste 18 Este 0 -- -- 50
2019-03-22 03:00:00 7.1 6 Este 15 Este 0 -- -- 49
2019-03-22 02:00:00 7.4 4 Sudeste 15 Este 0 -- -- 47
2019-03-22 01:00:00 8.5 9 Sudeste 23 Este 0 -- -- 46
2019-03-22 00:00:00 10 12 Este 23 Este 0 -- -- 43
2019-03-21 23:00:00 10.3 16 Este 23 Este 0 -- -- 39
2019-03-21 22:00:00 12.2 11 Este 32 Este 0 -- -- 37
2019-03-21 21:00:00 11.9 14 Nordeste 25 Norte 0 -- -- 35
2019-03-21 20:00:00 12.5 10 Nordeste 24 Nordeste 0 -- -- 34
2019-03-21 19:00:00 14.2 9 Nordeste 26 Este 0 -- -- 30
2019-03-21 18:00:00 15.1 9 Nordeste 33 Este 0 -- -- 26
2019-03-21 17:00:00 15.6 14 Este 36 Nordeste 0 -- -- 27
2019-03-21 16:00:00 15.6 14 Nordeste 30 Sudeste 0 -- -- 25
2019-03-21 15:00:00 14.9 11 Nordeste 33 Este 0 -- -- 27
2019-03-21 14:00:00 14.4 14 Este 39 Este 0 -- -- 31
2019-03-21 13:00:00 13.8 18 Este 39 Este 0 -- -- 29
2019-03-21 12:00:00 12.6 15 Este 35 Este 0 -- -- 34
2019-03-21 11:00:00 11.6 10 Sudeste 23 Sur 0 -- -- 39
2019-03-21 10:00:00 9.8 9 Sudeste 27 Sudeste 0 -- -- 40
2019-03-21 09:00:00 7.6 7 Sudeste 13 Sudeste 0 -- -- 46
2019-03-21 08:00:00 6.5 10 Este 17 Este 0 -- -- 43
2019-03-21 07:00:00 5.9 10 Este 17 Este 0 -- -- 49
2019-03-21 06:00:00 6.5 8 Sudeste 16 Este 0 -- -- 50
2019-03-21 05:00:00 6.9 7 Sudeste 18 Sudeste 0 -- -- 54
2019-03-21 04:00:00 7 9 Sudeste 18 Sudeste 0 -- -- 58
2019-03-21 03:00:00 7.5 8 Sudeste 17 Este 0 -- -- 54
2019-03-21 02:00:00 7.9 7 Sudeste 14 Sudeste 0 -- -- 49
2019-03-21 01:00:00 7.7 5 Sudeste 13 Este 0 -- -- 51
2019-03-21 00:00:00 9.7 8 Sudeste 19 Este 0 -- -- 43
2019-03-20 23:00:00 10.4 10 Este 17 Sudeste 0 -- -- 41
2019-03-20 22:00:00 11.3 5 Sudeste 26 Nordeste 0 -- -- 38
2019-03-20 21:00:00 11.8 15 Nordeste 28 Nordeste 0 -- -- 37
2019-03-20 20:00:00 12.6 13 Nordeste 27 Nordeste 0 -- -- 37
2019-03-20 19:00:00 14 15 Nordeste 25 Norte 0 -- -- 34
2019-03-20 18:00:00 14.8 11 Nordeste 28 Nordeste 0 -- -- 32
2019-03-20 17:00:00 15.4 9 Nordeste 24 Este 0 -- -- 31
2019-03-20 16:00:00 15.1 8 Sudeste 23 Norte 0 -- -- 32
2019-03-20 15:00:00 13.8 9 Nordeste 23 Nordeste 0 -- -- 38
2019-03-20 14:00:00 13.8 9 Este 29 Este 0 -- -- 37
2019-03-20 13:00:00 12.5 13 Este 31 Este 0 -- -- 40
2019-03-20 12:00:00 11.5 10 Este 22 Este 0 -- -- 46
2019-03-20 11:00:00 9.8 9 Este 26 Este 0 -- -- 50
2019-03-20 10:00:00 7.5 12 Nordeste 23 Nordeste 0 -- -- 54
2019-03-20 09:00:00 5.8 8 Nordeste 24 Nordeste 0 -- -- 59
2019-03-20 08:00:00 3.9 9 Nordeste 21 Nordeste 0 -- -- 64
2019-03-20 07:00:00 4.5 10 Norte 28 Noroeste 0 -- -- 62
2019-03-20 06:00:00 5.1 5 Sur 37 Nordeste 0 -- -- 60
2019-03-20 05:00:00 5.7 14 Nordeste 40 Norte 0 -- -- 58
2019-03-20 04:00:00 6.5 21 Nordeste 40 Nordeste 0 -- -- 54
2019-03-20 03:00:00 7.4 17 Nordeste 33 Nordeste 0 -- -- 51
2019-03-20 02:00:00 8.5 19 Nordeste 35 Nordeste 0 -- -- 47
2019-03-20 01:00:00 9.1 15 Nordeste 27 Nordeste 0 -- -- 45
2019-03-20 00:00:00 10.6 16 Nordeste 30 Nordeste 0 -- -- 41
2019-03-19 23:00:00 11.8 10 Nordeste 19 Nordeste 0 -- -- 38
2019-03-19 22:00:00 12.2 10 Nordeste 19 Nordeste 0 -- -- 37
2019-03-19 21:00:00 12.5 9 Nordeste 17 Norte 0 -- -- 36
2019-03-19 20:00:00 13.4 6 Este 28 Nordeste 0 -- -- 35
2019-03-19 19:00:00 14.4 12 Nordeste 29 Nordeste 0 -- -- 32
2019-03-19 18:00:00 15.3 12 Nordeste 35 Norte 0 -- -- 32
2019-03-19 17:00:00 15.5 16 Norte 33 Norte 0 -- -- 33
2019-03-19 16:00:00 15.5 17 Norte 39 Norte 0 -- -- 32
2019-03-19 15:00:00 14.8 17 Nordeste 39 Nordeste 0 -- -- 34
2019-03-19 14:00:00 14.1 20 Nordeste 41 Nordeste 0 -- -- 36
2019-03-19 13:00:00 13.5 14 Nordeste 38 Este 0 -- -- 38
2019-03-19 12:00:00 12 22 Nordeste 36 Nordeste 0 -- -- 41
2019-03-19 11:00:00 11.7 14 Nordeste 35 Nordeste 0 -- -- 42
2019-03-19 10:00:00 9.4 13 Nordeste 27 Nordeste 0 -- -- 46
2019-03-19 09:00:00 7.7 14 Nordeste 31 Nordeste 0 -- -- 50
2019-03-19 08:00:00 7.3 9 Nordeste 22 Nordeste 0 -- -- 46
2019-03-19 07:00:00 5.2 4 Sudoeste 10 Sudoeste 0 -- -- 52
2019-03-19 06:00:00 5.4 5 Sudoeste 18 Norte 0 -- -- 48
2019-03-19 05:00:00 6.7 3 Sudoeste 15 Norte 0 -- -- 46
2019-03-19 04:00:00 7.9 7 Nordeste 16 Nordeste 0 -- -- 40
2019-03-19 03:00:00 8.1 8 Nordeste 18 Nordeste 0 -- -- 40
2019-03-19 02:00:00 5.6 4 Norte 10 Sudoeste 0 -- -- 51
2019-03-19 01:00:00 6.1 2 Norte 10 Sudoeste 0 -- -- 49
2019-03-19 00:00:00 8.7 2 Sur 15 Este 0 -- -- 40